sensor_id;sensor_type;location;lat;lon;timestamp;pressure;altitude;pressure_sealevel;temperature;humidity
13033;BME280;6583;42.632;23.298;2023-05-18T00:00:11;69907.34;;;-146.40;95.41
13033;BME280;6583;42.632;23.298;2023-05-18T00:02:40;69905.31;;;-146.40;95.00
13033;BME280;6583;42.632;23.298;2023-05-18T00:05:07;69909.38;;;-146.40;94.96
13033;BME280;6583;42.632;23.298;2023-05-18T00:07:34;69909.38;;;-146.40;95.23
13033;BME280;6583;42.632;23.298;2023-05-18T00:10:03;69907.34;;;-146.40;95.68
13033;BME280;6583;42.632;23.298;2023-05-18T00:12:30;69911.41;;;-146.40;94.29
13033;BME280;6583;42.632;23.298;2023-05-18T00:14:57;69911.41;;;-146.40;95.22
13033;BME280;6583;42.632;23.298;2023-05-18T00:17:23;69907.34;;;-146.40;95.36
13033;BME280;6583;42.632;23.298;2023-05-18T00:19:50;69909.38;;;-146.40;94.97
13033;BME280;6583;42.632;23.298;2023-05-18T00:22:17;69903.31;;;-146.40;95.09
13033;BME280;6583;42.632;23.298;2023-05-18T00:24:44;69907.34;;;-146.40;95.01
13033;BME280;6583;42.632;23.298;2023-05-18T00:27:12;69907.34;;;-146.40;94.43
13033;BME280;6583;42.632;23.298;2023-05-18T00:29:39;69911.41;;;-146.40;94.27
13033;BME280;6583;42.632;23.298;2023-05-18T00:32:06;69907.34;;;-146.40;95.45
13033;BME280;6583;42.632;23.298;2023-05-18T00:34:33;69903.31;;;-146.40;96.12
13033;BME280;6583;42.632;23.298;2023-05-18T00:36:59;69897.25;;;-146.40;95.80
13033;BME280;6583;42.632;23.298;2023-05-18T00:39:26;69895.22;;;-146.40;94.96
13033;BME280;6583;42.632;23.298;2023-05-18T00:41:53;69903.31;;;-146.40;95.53
13033;BME280;6583;42.632;23.298;2023-05-18T00:44:21;69895.22;;;-146.40;95.48
13033;BME280;6583;42.632;23.298;2023-05-18T00:46:47;69887.13;;;-146.40;95.48
13033;BME280;6583;42.632;23.298;2023-05-18T00:49:15;69879.03;;;-146.40;94.19
13033;BME280;6583;42.632;23.298;2023-05-18T00:51:42;69874.97;;;-146.40;94.15
13033;BME280;6583;42.632;23.298;2023-05-18T00:54:09;69862.84;;;-146.40;93.98
13033;BME280;6583;42.632;23.298;2023-05-18T00:56:37;69864.88;;;-146.40;93.33
13033;BME280;6583;42.632;23.298;2023-05-18T00:59:06;69852.72;;;-146.40;92.99
13033;BME280;6583;42.632;23.298;2023-05-18T01:01:35;69860.81;;;-146.40;92.92
13033;BME280;6583;42.632;23.298;2023-05-18T01:04:08;69862.84;;;-146.40;93.55
13033;BME280;6583;42.632;23.298;2023-05-18T01:06:38;69858.81;;;-146.40;93.94
13033;BME280;6583;42.632;23.298;2023-05-18T01:09:07;69860.81;;;-146.40;93.94
13033;BME280;6583;42.632;23.298;2023-05-18T01:11:43;69866.91;;;-146.40;93.08
13033;BME280;6583;42.632;23.298;2023-05-18T01:14:17;69874.97;;;-146.40;93.83
13033;BME280;6583;42.632;23.298;2023-05-18T01:16:53;69874.97;;;-146.40;94.42
13033;BME280;6583;42.632;23.298;2023-05-18T01:22:32;69877.00;;;-146.40;94.07
13033;BME280;6583;42.632;23.298;2023-05-18T01:25:05;69877.00;;;-146.40;94.70
13033;BME280;6583;42.632;23.298;2023-05-18T01:27:41;69881.06;;;-146.40;94.54
13033;BME280;6583;42.632;23.298;2023-05-18T01:30:12;69879.03;;;-146.40;94.33
13033;BME280;6583;42.632;23.298;2023-05-18T01:32:41;69879.03;;;-146.40;94.34
13033;BME280;6583;42.632;23.298;2023-05-18T01:35:10;69887.13;;;-146.40;93.96
13033;BME280;6583;42.632;23.298;2023-05-18T01:37:37;69887.13;;;-146.40;94.13
13033;BME280;6583;42.632;23.298;2023-05-18T01:40:05;69891.16;;;-146.40;94.82
13033;BME280;6583;42.632;23.298;2023-05-18T01:42:37;69895.22;;;-146.40;96.17
13033;BME280;6583;42.632;23.298;2023-05-18T01:45:14;69891.16;;;-146.40;96.82
13033;BME280;6583;42.632;23.298;2023-05-18T01:47:44;69883.06;;;-146.40;96.22
13033;BME280;6583;42.632;23.298;2023-05-18T01:50:14;69877.00;;;-146.40;95.40
13033;BME280;6583;42.632;23.298;2023-05-18T01:52:45;69887.13;;;-146.40;95.38
13033;BME280;6583;42.632;23.298;2023-05-18T01:55:16;69885.09;;;-146.40;95.60
13033;BME280;6583;42.632;23.298;2023-05-18T01:57:44;69889.16;;;-146.40;96.29
13033;BME280;6583;42.632;23.298;2023-05-18T02:00:14;69889.16;;;-146.40;96.91
13033;BME280;6583;42.632;23.298;2023-05-18T02:02:42;69887.13;;;-146.40;96.73
13033;BME280;6583;42.632;23.298;2023-05-18T02:05:09;69887.13;;;-146.40;96.29
13033;BME280;6583;42.632;23.298;2023-05-18T02:07:36;69885.09;;;-146.40;95.64
13033;BME280;6583;42.632;23.298;2023-05-18T02:10:04;69883.06;;;-146.40;95.83
13033;BME280;6583;42.632;23.298;2023-05-18T02:12:30;69879.03;;;-146.40;95.61
13033;BME280;6583;42.632;23.298;2023-05-18T02:14:57;69874.97;;;-146.40;95.46
13033;BME280;6583;42.632;23.298;2023-05-18T02:17:26;69874.97;;;-146.40;94.95
13033;BME280;6583;42.632;23.298;2023-05-18T02:19:53;69881.06;;;-146.40;94.46
13033;BME280;6583;42.632;23.298;2023-05-18T02:22:20;69877.00;;;-146.40;94.34
13033;BME280;6583;42.632;23.298;2023-05-18T02:24:47;69870.94;;;-146.40;94.30
13033;BME280;6583;42.632;23.298;2023-05-18T02:27:13;69868.91;;;-146.40;93.76
13033;BME280;6583;42.632;23.298;2023-05-18T02:29:40;69881.06;;;-146.40;93.21
13033;BME280;6583;42.632;23.298;2023-05-18T02:32:07;69883.06;;;-146.40;94.37
13033;BME280;6583;42.632;23.298;2023-05-18T02:34:35;69889.16;;;-146.40;94.33
13033;BME280;6583;42.632;23.298;2023-05-18T02:37:02;69891.16;;;-146.40;94.02
13033;BME280;6583;42.632;23.298;2023-05-18T02:39:29;69895.22;;;-146.40;94.90
13033;BME280;6583;42.632;23.298;2023-05-18T02:41:58;69891.16;;;-146.40;95.17
13033;BME280;6583;42.632;23.298;2023-05-18T02:44:24;69897.25;;;-146.40;95.51
13033;BME280;6583;42.632;23.298;2023-05-18T02:46:51;69895.22;;;-146.40;95.39
13033;BME280;6583;42.632;23.298;2023-05-18T02:49:18;69903.31;;;-146.40;95.51
13033;BME280;6583;42.632;23.298;2023-05-18T02:51:46;69905.31;;;-146.40;96.35
13033;BME280;6583;42.632;23.298;2023-05-18T02:54:13;69899.25;;;-146.40;95.78
13033;BME280;6583;42.632;23.298;2023-05-18T02:56:39;69911.41;;;-146.40;95.26
13033;BME280;6583;42.632;23.298;2023-05-18T02:59:07;69929.59;;;-146.40;96.05
13033;BME280;6583;42.632;23.298;2023-05-18T03:01:34;69937.69;;;-146.40;96.85
13033;BME280;6583;42.632;23.298;2023-05-18T03:04:04;69939.72;;;-146.40;97.40
13033;BME280;6583;42.632;23.298;2023-05-18T03:06:31;69947.81;;;-146.40;97.51
13033;BME280;6583;42.632;23.298;2023-05-18T03:08:59;69943.75;;;-146.40;98.43
13033;BME280;6583;42.632;23.298;2023-05-18T03:11:25;69943.75;;;-146.40;98.50
13033;BME280;6583;42.632;23.298;2023-05-18T03:13:52;69943.75;;;-146.40;97.52
13033;BME280;6583;42.632;23.298;2023-05-18T03:16:19;69943.75;;;-146.40;96.85
13033;BME280;6583;42.632;23.298;2023-05-18T03:18:45;69949.84;;;-146.40;97.21
13033;BME280;6583;42.632;23.298;2023-05-18T03:21:12;69957.94;;;-146.40;97.13
13033;BME280;6583;42.632;23.298;2023-05-18T03:23:39;69957.94;;;-146.40;96.78
13033;BME280;6583;42.632;23.298;2023-05-18T03:26:07;69976.13;;;-146.40;96.67
13033;BME280;6583;42.632;23.298;2023-05-18T03:28:36;69984.22;;;-146.40;97.06
13033;BME280;6583;42.632;23.298;2023-05-18T03:31:03;69992.31;;;-146.40;97.57
13033;BME280;6583;42.632;23.298;2023-05-18T03:33:29;69988.25;;;-146.40;98.09
13033;BME280;6583;42.632;23.298;2023-05-18T03:35:59;69986.25;;;-146.40;98.67
13033;BME280;6583;42.632;23.298;2023-05-18T03:38:26;69984.22;;;-146.40;98.71
13033;BME280;6583;42.632;23.298;2023-05-18T03:40:53;69988.25;;;-146.40;98.86
13033;BME280;6583;42.632;23.298;2023-05-18T03:43:21;69984.22;;;-146.40;98.94
13033;BME280;6583;42.632;23.298;2023-05-18T03:45:50;69994.34;;;-146.40;98.73
13033;BME280;6583;42.632;23.298;2023-05-18T03:48:16;69990.28;;;-146.40;98.60
13033;BME280;6583;42.632;23.298;2023-05-18T03:50:43;69986.25;;;-146.40;98.27
13033;BME280;6583;42.632;23.298;2023-05-18T03:53:10;69992.31;;;-146.40;98.22
13033;BME280;6583;42.632;23.298;2023-05-18T03:55:37;69984.22;;;-146.40;98.43
13033;BME280;6583;42.632;23.298;2023-05-18T03:58:04;69984.22;;;-146.40;97.86
13033;BME280;6583;42.632;23.298;2023-05-18T04:00:32;69984.22;;;-146.40;97.89
13033;BME280;6583;42.632;23.298;2023-05-18T04:02:58;69984.22;;;-146.40;97.92
13033;BME280;6583;42.632;23.298;2023-05-18T04:05:27;69982.19;;;-146.40;98.23
13033;BME280;6583;42.632;23.298;2023-05-18T04:07:54;69990.28;;;-146.40;97.33
13033;BME280;6583;42.632;23.298;2023-05-18T04:10:22;69996.34;;;-146.40;97.30
13033;BME280;6583;42.632;23.298;2023-05-18T04:12:48;69998.38;;;-146.40;97.62
13033;BME280;6583;42.632;23.298;2023-05-18T04:15:15;70008.50;;;-146.40;97.98
13033;BME280;6583;42.632;23.298;2023-05-18T04:17:43;70008.50;;;-146.40;98.31
13033;BME280;6583;42.632;23.298;2023-05-18T04:20:10;70008.50;;;-146.40;98.98
13033;BME280;6583;42.632;23.298;2023-05-18T04:22:39;70016.59;;;-146.40;98.02
13033;BME280;6583;42.632;23.298;2023-05-18T04:25:11;70008.50;;;-146.40;97.73
13033;BME280;6583;42.632;23.298;2023-05-18T04:27:38;70012.53;;;-146.40;97.67
13033;BME280;6583;42.632;23.298;2023-05-18T04:30:07;70008.50;;;-146.40;98.16
13033;BME280;6583;42.632;23.298;2023-05-18T04:32:35;70010.53;;;-146.40;98.77
13033;BME280;6583;42.632;23.298;2023-05-18T04:35:04;70008.50;;;-146.40;99.23
13033;BME280;6583;42.632;23.298;2023-05-18T04:37:31;70006.47;;;-146.40;98.75
13033;BME280;6583;42.632;23.298;2023-05-18T04:39:58;70010.53;;;-146.40;98.80
13033;BME280;6583;42.632;23.298;2023-05-18T04:42:26;70004.44;;;-146.40;99.04
13033;BME280;6583;42.632;23.298;2023-05-18T04:44:53;70002.44;;;-146.40;99.43
13033;BME280;6583;42.632;23.298;2023-05-18T04:47:20;69996.34;;;-146.40;99.93
13033;BME280;6583;42.632;23.298;2023-05-18T04:49:48;70002.44;;;-146.40;98.57
13033;BME280;6583;42.632;23.298;2023-05-18T04:52:18;70002.44;;;-146.40;98.20
13033;BME280;6583;42.632;23.298;2023-05-18T04:54:45;69996.34;;;-146.40;98.26
13033;BME280;6583;42.632;23.298;2023-05-18T04:57:12;70000.41;;;-146.40;98.44
13033;BME280;6583;42.632;23.298;2023-05-18T04:59:39;70018.59;;;-146.40;98.69
13033;BME280;6583;42.632;23.298;2023-05-18T05:02:07;70022.66;;;-146.40;98.65
13033;BME280;6583;42.632;23.298;2023-05-18T05:04:33;70020.63;;;-146.40;99.31
13033;BME280;6583;42.632;23.298;2023-05-18T05:07:00;70016.59;;;-146.40;98.97
13033;BME280;6583;42.632;23.298;2023-05-18T05:09:28;70020.63;;;-146.40;98.83
13033;BME280;6583;42.632;23.298;2023-05-18T05:11:54;70014.56;;;-146.40;99.08
13033;BME280;6583;42.632;23.298;2023-05-18T05:14:21;70010.53;;;-146.40;99.03
13033;BME280;6583;42.632;23.298;2023-05-18T05:16:48;70008.50;;;-146.40;97.90
13033;BME280;6583;42.632;23.298;2023-05-18T05:19:15;70012.53;;;-146.40;97.08
13033;BME280;6583;42.632;23.298;2023-05-18T05:21:41;70012.53;;;-146.40;97.04
13033;BME280;6583;42.632;23.298;2023-05-18T05:24:08;70016.59;;;-146.40;97.78
13033;BME280;6583;42.632;23.298;2023-05-18T05:26:36;70012.53;;;-146.40;98.41
13033;BME280;6583;42.632;23.298;2023-05-18T05:29:03;70008.50;;;-146.40;97.99
13033;BME280;6583;42.632;23.298;2023-05-18T05:31:29;70008.50;;;-146.40;97.25
13033;BME280;6583;42.632;23.298;2023-05-18T05:33:56;70010.53;;;-146.40;97.66
13033;BME280;6583;42.632;23.298;2023-05-18T05:36:23;70012.53;;;-146.40;97.15
13033;BME280;6583;42.632;23.298;2023-05-18T05:38:49;70016.59;;;-146.40;96.93
13033;BME280;6583;42.632;23.298;2023-05-18T05:41:16;70022.66;;;-146.40;97.63
13033;BME280;6583;42.632;23.298;2023-05-18T05:43:44;70020.63;;;-146.40;97.12
13033;BME280;6583;42.632;23.298;2023-05-18T05:46:11;70036.81;;;-146.40;96.49
13033;BME280;6583;42.632;23.298;2023-05-18T05:48:37;70038.84;;;-146.40;97.57
13033;BME280;6583;42.632;23.298;2023-05-18T05:51:04;70044.91;;;-146.40;97.36
13033;BME280;6583;42.632;23.298;2023-05-18T05:53:31;70044.91;;;-146.40;97.16
13033;BME280;6583;42.632;23.298;2023-05-18T05:55:57;70053.00;;;-146.40;97.85
13033;BME280;6583;42.632;23.298;2023-05-18T05:58:24;70061.09;;;-146.40;97.80
13033;BME280;6583;42.632;23.298;2023-05-18T06:00:52;70063.13;;;-146.40;98.42
13033;BME280;6583;42.632;23.298;2023-05-18T06:03:19;70077.28;;;-146.40;98.76
13033;BME280;6583;42.632;23.298;2023-05-18T06:05:46;70091.44;;;-146.40;99.56
13033;BME280;6583;42.632;23.298;2023-05-18T06:08:12;70093.47;;;-146.40;99.05
13033;BME280;6583;42.632;23.298;2023-05-18T06:10:40;70103.56;;;-146.40;98.00
13033;BME280;6583;42.632;23.298;2023-05-18T06:13:06;70101.56;;;-146.40;98.92
13033;BME280;6583;42.632;23.298;2023-05-18T06:15:33;70093.47;;;-146.40;99.23
13033;BME280;6583;42.632;23.298;2023-05-18T06:18:01;70093.47;;;-146.40;99.39
13033;BME280;6583;42.632;23.298;2023-05-18T06:20:28;70089.41;;;-146.40;99.53
13033;BME280;6583;42.632;23.298;2023-05-18T06:22:55;70089.41;;;-146.40;99.67
13033;BME280;6583;42.632;23.298;2023-05-18T06:25:22;70079.28;;;-146.40;99.89
13033;BME280;6583;42.632;23.298;2023-05-18T06:27:49;70081.31;;;-146.40;100.00
13033;BME280;6583;42.632;23.298;2023-05-18T06:30:16;70079.28;;;-146.40;99.86
13033;BME280;6583;42.632;23.298;2023-05-18T06:32:43;70077.28;;;-146.40;100.00
13033;BME280;6583;42.632;23.298;2023-05-18T06:35:11;70073.22;;;-146.40;100.00
13033;BME280;6583;42.632;23.298;2023-05-18T06:37:38;70073.22;;;-146.40;99.77
13033;BME280;6583;42.632;23.298;2023-05-18T06:40:06;70069.19;;;-146.40;99.94
13033;BME280;6583;42.632;23.298;2023-05-18T06:42:33;70069.19;;;-146.40;99.40
13033;BME280;6583;42.632;23.298;2023-05-18T06:45:00;70077.28;;;-146.40;99.36
13033;BME280;6583;42.632;23.298;2023-05-18T06:47:27;70069.19;;;-146.40;98.69
13033;BME280;6583;42.632;23.298;2023-05-18T06:49:54;70083.34;;;-146.40;98.19
13033;BME280;6583;42.632;23.298;2023-05-18T06:52:22;70089.41;;;-146.40;98.79
13033;BME280;6583;42.632;23.298;2023-05-18T06:54:48;70085.38;;;-146.40;98.58
13033;BME280;6583;42.632;23.298;2023-05-18T06:57:16;70087.38;;;-146.40;98.72
13033;BME280;6583;42.632;23.298;2023-05-18T06:59:42;70095.47;;;-146.40;98.69
13033;BME280;6583;42.632;23.298;2023-05-18T07:02:09;70105.59;;;-146.40;99.32
13033;BME280;6583;42.632;23.298;2023-05-18T07:04:36;70105.59;;;-146.40;99.58
13033;BME280;6583;42.632;23.298;2023-05-18T07:07:02;70119.75;;;-146.40;99.84
13033;BME280;6583;42.632;23.298;2023-05-18T07:09:30;70140.00;;;-146.40;98.18
13033;BME280;6583;42.632;23.298;2023-05-18T07:11:57;70146.06;;;-146.40;98.19
13033;BME280;6583;42.632;23.298;2023-05-18T07:14:24;70150.09;;;-146.40;99.55
13033;BME280;6583;42.632;23.298;2023-05-18T07:16:52;70142.00;;;-146.40;100.00
13033;BME280;6583;42.632;23.298;2023-05-18T07:19:18;70140.00;;;-146.40;100.00
13033;BME280;6583;42.632;23.298;2023-05-18T07:21:45;70146.06;;;-146.40;100.00
13033;BME280;6583;42.632;23.298;2023-05-18T07:24:12;70152.13;;;-146.40;100.00
13033;BME280;6583;42.632;23.298;2023-05-18T07:26:40;70158.19;;;-146.40;100.00
13033;BME280;6583;42.632;23.298;2023-05-18T07:29:06;70150.09;;;-146.40;100.00
13033;BME280;6583;42.632;23.298;2023-05-18T07:31:33;70166.28;;;-146.40;100.00
13033;BME280;6583;42.632;23.298;2023-05-18T07:34:03;70168.31;;;-146.40;100.00
13033;BME280;6583;42.632;23.298;2023-05-18T07:36:30;70166.28;;;-146.40;100.00
13033;BME280;6583;42.632;23.298;2023-05-18T07:38:57;70166.28;;;-146.40;100.00
13033;BME280;6583;42.632;23.298;2023-05-18T07:41:24;70166.28;;;-146.40;100.00
13033;BME280;6583;42.632;23.298;2023-05-18T07:43:53;70166.28;;;-146.40;100.00
13033;BME280;6583;42.632;23.298;2023-05-18T07:46:20;70170.34;;;-146.40;100.00
13033;BME280;6583;42.632;23.298;2023-05-18T07:48:47;70186.50;;;-146.40;100.00
13033;BME280;6583;42.632;23.298;2023-05-18T07:51:13;70182.47;;;-146.40;100.00
13033;BME280;6583;42.632;23.298;2023-05-18T07:53:40;70180.44;;;-146.40;100.00
13033;BME280;6583;42.632;23.298;2023-05-18T07:56:07;70182.47;;;-146.40;99.61
13033;BME280;6583;42.632;23.298;2023-05-18T07:58:34;70186.50;;;-146.40;99.86
13033;BME280;6583;42.632;23.298;2023-05-18T08:01:02;70186.50;;;-146.40;99.24
13033;BME280;6583;42.632;23.298;2023-05-18T08:03:29;70194.59;;;-146.40;99.41
13033;BME280;6583;42.632;23.298;2023-05-18T08:05:56;70190.56;;;-146.40;99.23
13033;BME280;6583;42.632;23.298;2023-05-18T08:08:24;70196.63;;;-146.40;99.47
13033;BME280;6583;42.632;23.298;2023-05-18T08:10:51;70194.59;;;-146.40;99.50
13033;BME280;6583;42.632;23.298;2023-05-18T08:13:18;70194.59;;;-146.40;99.71
13033;BME280;6583;42.632;23.298;2023-05-18T08:15:44;70204.72;;;-146.40;99.67
13033;BME280;6583;42.632;23.298;2023-05-18T08:18:12;70210.78;;;-146.40;99.86
13033;BME280;6583;42.632;23.298;2023-05-18T08:20:39;70210.78;;;-146.40;99.51
13033;BME280;6583;42.632;23.298;2023-05-18T08:23:06;70218.88;;;-146.40;100.00
13033;BME280;6583;42.632;23.298;2023-05-18T08:25:33;70222.94;;;-146.40;100.00
13033;BME280;6583;42.632;23.298;2023-05-18T08:27:59;70216.84;;;-146.40;100.00
13033;BME280;6583;42.632;23.298;2023-05-18T08:30:26;70216.84;;;-146.40;100.00
13033;BME280;6583;42.632;23.298;2023-05-18T08:32:53;70231.03;;;-146.40;100.00
13033;BME280;6583;42.632;23.298;2023-05-18T08:35:21;70251.25;;;-146.40;100.00
13033;BME280;6583;42.632;23.298;2023-05-18T08:37:47;70263.38;;;-146.40;100.00
13033;BME280;6583;42.632;23.298;2023-05-18T08:40:15;70263.38;;;-146.40;100.00
13033;BME280;6583;42.632;23.298;2023-05-18T08:42:47;70257.31;;;-146.40;100.00
13033;BME280;6583;42.632;23.298;2023-05-18T08:45:21;70255.28;;;-146.40;100.00
13033;BME280;6583;42.632;23.298;2023-05-18T08:47:49;70251.25;;;-146.40;100.00
13033;BME280;6583;42.632;23.298;2023-05-18T08:50:20;70267.44;;;-146.40;100.00
13033;BME280;6583;42.632;23.298;2023-05-18T08:52:52;70263.38;;;-146.40;100.00
13033;BME280;6583;42.632;23.298;2023-05-18T08:55:20;70261.38;;;-146.40;100.00
13033;BME280;6583;42.632;23.298;2023-05-18T08:57:51;70269.47;;;-146.40;99.87
13033;BME280;6583;42.632;23.298;2023-05-18T09:00:21;70273.50;;;-146.40;98.59
13033;BME280;6583;42.632;23.298;2023-05-18T09:02:49;70269.47;;;-146.40;98.43
13033;BME280;6583;42.632;23.298;2023-05-18T09:05:17;70265.41;;;-146.40;98.05
13033;BME280;6583;42.632;23.298;2023-05-18T09:07:46;70271.47;;;-146.40;98.07
13033;BME280;6583;42.632;23.298;2023-05-18T09:10:12;70285.66;;;-146.40;97.30
13033;BME280;6583;42.632;23.298;2023-05-18T09:12:41;70293.75;;;-146.40;98.03
13033;BME280;6583;42.632;23.298;2023-05-18T09:15:09;70307.91;;;-146.40;97.36
13033;BME280;6583;42.632;23.298;2023-05-18T09:17:36;70299.81;;;-146.40;97.12
13033;BME280;6583;42.632;23.298;2023-05-18T09:20:04;70299.81;;;-146.40;97.50
13033;BME280;6583;42.632;23.298;2023-05-18T09:22:31;70291.72;;;-146.40;97.86
13033;BME280;6583;42.632;23.298;2023-05-18T09:25:01;70303.84;;;-146.40;97.03
13033;BME280;6583;42.632;23.298;2023-05-18T09:27:28;70328.13;;;-146.40;93.33
13033;BME280;6583;42.632;23.298;2023-05-18T09:29:56;70340.28;;;-146.40;98.15
13033;BME280;6583;42.632;23.298;2023-05-18T09:32:24;70328.13;;;-146.40;98.56
13033;BME280;6583;42.632;23.298;2023-05-18T09:34:51;70322.06;;;-146.40;98.91
13033;BME280;6583;42.632;23.298;2023-05-18T09:37:19;70316.00;;;-146.40;99.25
13033;BME280;6583;42.632;23.298;2023-05-18T09:39:57;70311.94;;;-146.40;99.82
13033;BME280;6583;42.632;23.298;2023-05-18T09:42:33;70309.91;;;-146.40;99.95
13033;BME280;6583;42.632;23.298;2023-05-18T09:45:01;70303.84;;;-146.40;98.93
13033;BME280;6583;42.632;23.298;2023-05-18T09:47:28;70311.94;;;-146.40;98.69
13033;BME280;6583;42.632;23.298;2023-05-18T09:49:55;70318.00;;;-146.40;97.15
13033;BME280;6583;42.632;23.298;2023-05-18T09:52:22;70332.19;;;-146.40;97.04
13033;BME280;6583;42.632;23.298;2023-05-18T09:54:56;70320.03;;;-146.40;97.25
13033;BME280;6583;42.632;23.298;2023-05-18T09:57:24;70328.13;;;-146.40;98.01
13033;BME280;6583;42.632;23.298;2023-05-18T09:59:55;70320.03;;;-146.40;97.91
13033;BME280;6583;42.632;23.298;2023-05-18T10:02:23;70328.13;;;-146.40;98.67
13033;BME280;6583;42.632;23.298;2023-05-18T10:04:51;70324.09;;;-146.40;99.33
13033;BME280;6583;42.632;23.298;2023-05-18T10:07:17;70334.19;;;-146.40;99.18
13033;BME280;6583;42.632;23.298;2023-05-18T10:09:45;70336.22;;;-146.40;99.06
13033;BME280;6583;42.632;23.298;2023-05-18T10:12:13;70320.03;;;-146.40;99.13
13033;BME280;6583;42.632;23.298;2023-05-18T10:14:40;70318.00;;;-146.40;99.85
13033;BME280;6583;42.632;23.298;2023-05-18T10:17:10;70328.13;;;-146.40;99.98
13033;BME280;6583;42.632;23.298;2023-05-18T10:19:39;70309.91;;;-146.40;100.00
13033;BME280;6583;42.632;23.298;2023-05-18T10:22:07;70303.84;;;-146.40;100.00
13033;BME280;6583;42.632;23.298;2023-05-18T10:24:38;70295.75;;;-146.40;100.00
13033;BME280;6583;42.632;23.298;2023-05-18T10:27:07;70289.69;;;-146.40;99.68
13033;BME280;6583;42.632;23.298;2023-05-18T10:29:36;70285.66;;;-146.40;99.64
13033;BME280;6583;42.632;23.298;2023-05-18T10:32:03;70291.72;;;-146.40;97.83
13033;BME280;6583;42.632;23.298;2023-05-18T10:34:32;70289.69;;;-146.40;97.84
13033;BME280;6583;42.632;23.298;2023-05-18T10:37:00;70289.69;;;-146.40;97.33
13033;BME280;6583;42.632;23.298;2023-05-18T10:39:30;70293.75;;;-146.40;97.47
13033;BME280;6583;42.632;23.298;2023-05-18T10:41:58;70295.75;;;-146.40;97.38
13033;BME280;6583;42.632;23.298;2023-05-18T10:44:25;70297.78;;;-146.40;96.73
13033;BME280;6583;42.632;23.298;2023-05-18T10:46:53;70295.75;;;-146.40;97.36
13033;BME280;6583;42.632;23.298;2023-05-18T10:49:21;70287.66;;;-146.40;97.15
13033;BME280;6583;42.632;23.298;2023-05-18T10:51:51;70287.66;;;-146.40;98.16
13033;BME280;6583;42.632;23.298;2023-05-18T10:54:20;70287.66;;;-146.40;97.54
13033;BME280;6583;42.632;23.298;2023-05-18T10:56:50;70295.75;;;-146.40;96.60
13033;BME280;6583;42.632;23.298;2023-05-18T10:59:18;70301.84;;;-146.40;95.66
13033;BME280;6583;42.632;23.298;2023-05-18T11:01:48;70307.91;;;-146.40;95.87
13033;BME280;6583;42.632;23.298;2023-05-18T11:04:21;70301.84;;;-146.40;95.54
13033;BME280;6583;42.632;23.298;2023-05-18T11:06:56;70320.03;;;-146.40;93.63
13033;BME280;6583;42.632;23.298;2023-05-18T11:09:24;70320.03;;;-146.40;93.70
13033;BME280;6583;42.632;23.298;2023-05-18T11:11:51;70328.13;;;-146.40;94.56
13033;BME280;6583;42.632;23.298;2023-05-18T11:14:27;70324.09;;;-146.40;95.73
13033;BME280;6583;42.632;23.298;2023-05-18T11:17:14;70340.28;;;-146.40;94.40
13033;BME280;6583;42.632;23.298;2023-05-18T11:20:11;70344.31;;;-146.40;97.18
13033;BME280;6583;42.632;23.298;2023-05-18T11:22:50;70344.31;;;-146.40;97.74
13033;BME280;6583;42.632;23.298;2023-05-18T11:25:38;70352.41;;;-146.40;96.49
13033;BME280;6583;42.632;23.298;2023-05-18T11:28:07;70352.41;;;-146.40;97.05
13033;BME280;6583;42.632;23.298;2023-05-18T11:30:49;70352.41;;;-146.40;97.79
13033;BME280;6583;42.632;23.298;2023-05-18T11:33:21;70358.47;;;-146.40;97.95
13033;BME280;6583;42.632;23.298;2023-05-18T11:35:56;70358.47;;;-146.40;98.13
13033;BME280;6583;42.632;23.298;2023-05-18T11:38:43;70368.59;;;-146.40;97.98
13033;BME280;6583;42.632;23.298;2023-05-18T11:41:26;70370.63;;;-146.40;98.11
13033;BME280;6583;42.632;23.298;2023-05-18T11:44:13;70384.78;;;-146.40;97.20
13033;BME280;6583;42.632;23.298;2023-05-18T11:46:50;70409.06;;;-146.40;96.10
13033;BME280;6583;42.632;23.298;2023-05-18T11:49:19;70407.03;;;-146.40;97.75
13033;BME280;6583;42.632;23.298;2023-05-18T11:52:03;70413.09;;;-146.40;98.12
13033;BME280;6583;42.632;23.298;2023-05-18T11:54:39;70407.03;;;-146.40;98.58
13033;BME280;6583;42.632;23.298;2023-05-18T11:57:06;70398.94;;;-146.40;99.34
13033;BME280;6583;42.632;23.298;2023-05-18T11:59:36;70407.03;;;-146.40;99.99
13033;BME280;6583;42.632;23.298;2023-05-18T12:02:04;70400.97;;;-146.40;99.77
13033;BME280;6583;42.632;23.298;2023-05-18T12:04:32;70394.91;;;-146.40;100.00
13033;BME280;6583;42.632;23.298;2023-05-18T12:06:59;70388.81;;;-146.40;100.00
13033;BME280;6583;42.632;23.298;2023-05-18T12:09:30;70386.81;;;-146.40;98.19
13033;BME280;6583;42.632;23.298;2023-05-18T12:11:59;70380.72;;;-146.40;96.95
13033;BME280;6583;42.632;23.298;2023-05-18T12:14:27;70390.84;;;-146.40;96.77
13033;BME280;6583;42.632;23.298;2023-05-18T12:16:56;70384.78;;;-146.40;97.98
13033;BME280;6583;42.632;23.298;2023-05-18T12:19:23;70388.81;;;-146.40;95.96
13033;BME280;6583;42.632;23.298;2023-05-18T12:21:49;70394.91;;;-146.40;95.80
13033;BME280;6583;42.632;23.298;2023-05-18T12:24:16;70378.72;;;-146.40;97.52
13033;BME280;6583;42.632;23.298;2023-05-18T12:26:43;70376.69;;;-146.40;98.19
13033;BME280;6583;42.632;23.298;2023-05-18T12:29:12;70372.63;;;-146.40;99.00
13033;BME280;6583;42.632;23.298;2023-05-18T12:31:47;70366.56;;;-146.40;98.48
13033;BME280;6583;42.632;23.298;2023-05-18T12:34:14;70362.53;;;-146.40;97.93
13033;BME280;6583;42.632;23.298;2023-05-18T12:36:49;70352.41;;;-146.40;97.45
13033;BME280;6583;42.632;23.298;2023-05-18T12:39:16;70344.31;;;-146.40;96.74
13033;BME280;6583;42.632;23.298;2023-05-18T12:41:43;70350.38;;;-146.40;97.15
13033;BME280;6583;42.632;23.298;2023-05-18T12:44:10;70348.38;;;-146.40;97.10
13033;BME280;6583;42.632;23.298;2023-05-18T12:46:38;70376.69;;;-146.40;94.77